createdAt,value
2023-03-25T00:02:00.936Z,92.70
2023-03-25T00:04:53.862Z,92.70
2023-03-25T00:07:40.599Z,92.60
2023-03-25T00:10:26.402Z,92.50
2023-03-25T00:13:13.633Z,92.50
2023-03-25T00:16:00.660Z,92.60
2023-03-25T00:18:47.921Z,92.60
2023-03-25T00:21:34.401Z,92.60
2023-03-25T00:24:20.984Z,92.50
2023-03-25T00:27:06.867Z,92.40
2023-03-25T00:29:53.411Z,92.40
2023-03-25T00:32:40.121Z,92.30
2023-03-25T00:35:26.117Z,92.20
2023-03-25T00:38:12.523Z,92.10
2023-03-25T00:40:58.344Z,92.20
2023-03-25T00:43:45.627Z,92.10
2023-03-25T00:46:33.375Z,92.10
2023-03-25T00:49:19.403Z,91.90
2023-03-25T00:52:05.327Z,91.90
2023-03-25T00:54:52.835Z,91.70
2023-03-25T00:57:40.580Z,91.70
2023-03-25T01:00:27.216Z,91.40
2023-03-25T01:03:13.593Z,91.10
2023-03-25T01:05:59.891Z,90.90
2023-03-25T01:08:45.885Z,91.00
2023-03-25T01:11:38.282Z,90.90
2023-03-25T01:14:27.648Z,90.80
2023-03-25T01:17:13.826Z,90.90
2023-03-25T01:19:59.668Z,90.70
2023-03-25T01:22:45.747Z,90.60
2023-03-25T01:25:32.018Z,90.30
2023-03-25T01:28:17.882Z,90.30
2023-03-25T01:31:06.502Z,90.30
2023-03-25T01:33:53.258Z,90.00
2023-03-25T01:36:46.604Z,90.00
2023-03-25T01:39:32.728Z,90.10
2023-03-25T01:42:18.744Z,90.10
2023-03-25T01:45:21.660Z,90.10
2023-03-25T01:48:19.105Z,90.10
2023-03-25T01:51:18.481Z,90.10
2023-03-25T01:54:05.270Z,89.80
2023-03-25T01:56:52.284Z,89.70
2023-03-25T01:59:39.373Z,90.00
2023-03-25T02:02:34.850Z,90.10
2023-03-25T02:05:32.861Z,90.20
2023-03-25T02:08:20.779Z,89.90
2023-03-25T02:11:07.854Z,89.60
2023-03-25T02:13:53.687Z,89.20
2023-03-25T02:17:02.531Z,89.40
2023-03-25T02:20:13.817Z,89.00
2023-03-25T02:23:11.836Z,89.20
2023-03-25T02:26:21.188Z,89.50
2023-03-25T02:29:43.152Z,89.70
2023-03-25T02:32:44.386Z,89.80
2023-03-25T02:36:08.796Z,89.70
2023-03-25T02:39:27.215Z,88.90
2023-03-25T02:42:48.664Z,88.30
2023-03-25T02:45:40.451Z,88.40
2023-03-25T02:48:40.565Z,88.70
2023-03-25T02:51:33.145Z,88.40
2023-03-25T02:54:21.788Z,88.60
2023-03-25T02:57:09.466Z,88.50
2023-03-25T02:59:57.993Z,87.90
2023-03-25T03:02:50.691Z,88.40
2023-03-25T03:05:45.573Z,88.40
2023-03-25T03:08:40.693Z,88.90
2023-03-25T03:11:53.873Z,88.80
2023-03-25T03:14:42.618Z,88.70
2023-03-25T03:17:50.275Z,88.50
2023-03-25T03:20:44.080Z,88.00
2023-03-25T03:23:56.568Z,87.60
2023-03-25T03:26:53.982Z,88.30
2023-03-25T03:29:46.295Z,88.00
2023-03-25T03:32:48.402Z,88.20
2023-03-25T03:35:39.684Z,88.00
2023-03-25T03:38:29.710Z,88.10
2023-03-25T03:41:21.079Z,88.50
2023-03-25T03:44:14.401Z,88.40
2023-03-25T03:47:10.913Z,88.40
2023-03-25T03:50:07.012Z,88.60
2023-03-25T03:53:18.828Z,89.00
2023-03-25T03:56:13.746Z,89.60
2023-03-25T03:59:02.443Z,89.80
2023-03-25T04:01:55.453Z,89.90
2023-03-25T04:04:42.700Z,90.00
2023-03-25T04:07:41.571Z,90.10
2023-03-25T04:10:39.615Z,90.10
2023-03-25T04:13:30.319Z,90.20
2023-03-25T04:16:16.716Z,90.30
2023-03-25T04:19:06.954Z,90.20
2023-03-25T04:21:53.987Z,90.20
2023-03-25T04:24:41.837Z,90.00
2023-03-25T04:27:29.926Z,90.10
2023-03-25T04:30:19.772Z,90.10
2023-03-25T04:33:06.341Z,90.00
2023-03-25T04:35:53.181Z,90.00
2023-03-25T04:38:40.748Z,89.60
2023-03-25T04:41:28.739Z,89.20
2023-03-25T04:44:14.829Z,89.40
2023-03-25T04:47:02.335Z,89.20
2023-03-25T04:49:48.211Z,89.10
2023-03-25T04:52:34.572Z,89.20
2023-03-25T04:55:21.424Z,88.60
2023-03-25T04:58:09.892Z,88.50
2023-03-25T05:00:56.233Z,88.80
2023-03-25T05:03:42.765Z,88.80
2023-03-25T05:06:29.216Z,88.40
2023-03-25T05:09:19.156Z,88.10
2023-03-25T05:12:05.722Z,87.60
2023-03-25T05:14:51.876Z,87.50
2023-03-25T05:17:38.412Z,87.50
2023-03-25T05:20:25.084Z,87.50
2023-03-25T05:23:16.110Z,87.60
2023-03-25T05:26:02.270Z,87.40
2023-03-25T05:28:51.397Z,87.50
2023-03-25T05:31:37.444Z,87.50
2023-03-25T05:34:25.660Z,87.10
2023-03-25T05:37:13.097Z,87.40
2023-03-25T05:39:59.444Z,86.70
2023-03-25T05:42:48.944Z,86.70
2023-03-25T05:45:37.937Z,86.40
2023-03-25T05:48:24.396Z,85.80
2023-03-25T05:51:16.459Z,86.30
2023-03-25T05:54:02.452Z,85.90
2023-03-25T05:56:48.381Z,86.60
2023-03-25T05:59:38.811Z,86.60
2023-03-25T06:02:25.696Z,86.40
2023-03-25T06:05:16.161Z,87.30
2023-03-25T06:08:02.554Z,85.90
2023-03-25T06:10:48.720Z,86.00
2023-03-25T06:13:38.180Z,85.60
2023-03-25T06:16:29.794Z,85.60
2023-03-25T06:19:18.580Z,85.30
2023-03-25T06:22:11.201Z,84.50
2023-03-25T06:24:57.520Z,83.80
2023-03-25T06:27:43.902Z,83.30
2023-03-25T06:30:30.247Z,83.40
2023-03-25T06:33:43.296Z,82.70
2023-03-25T06:36:27.348Z,82.00
2023-03-25T06:39:14.150Z,81.20
2023-03-25T06:42:01.139Z,81.60
2023-03-25T06:45:05.028Z,81.60
2023-03-25T06:48:03.474Z,79.90
2023-03-25T06:50:49.313Z,80.10
2023-03-25T06:53:35.282Z,80.00
2023-03-25T06:56:21.380Z,80.90
2023-03-25T06:59:07.619Z,81.00
2023-03-25T07:01:54.067Z,81.10
2023-03-25T07:04:40.638Z,81.40
2023-03-25T07:07:26.954Z,82.60
2023-03-25T07:10:14.079Z,82.90
2023-03-25T07:12:59.808Z,84.00
2023-03-25T07:15:46.030Z,83.70
2023-03-25T07:18:32.439Z,83.60
2023-03-25T07:21:19.442Z,84.50
2023-03-25T07:24:05.898Z,84.00
2023-03-25T07:26:51.559Z,84.60
2023-03-25T07:29:41.242Z,84.70
2023-03-25T07:32:27.547Z,85.00
2023-03-25T07:35:13.500Z,83.30
2023-03-25T07:37:59.272Z,82.00
2023-03-25T07:40:50.386Z,83.10
2023-03-25T07:43:37.799Z,84.40
2023-03-25T07:46:35.282Z,84.90
2023-03-25T07:49:21.466Z,85.50
2023-03-25T07:52:07.878Z,85.70
2023-03-25T07:54:54.283Z,86.30
2023-03-25T07:57:42.174Z,85.40
2023-03-25T08:00:29.870Z,83.70
2023-03-25T08:03:16.825Z,84.80
2023-03-25T08:06:03.478Z,85.20
2023-03-25T08:08:49.275Z,86.30
2023-03-25T08:11:35.733Z,85.80
2023-03-25T08:14:22.445Z,85.20
2023-03-25T08:17:08.637Z,85.90
2023-03-25T08:19:54.531Z,85.00
2023-03-25T08:22:40.569Z,85.60
2023-03-25T08:25:26.711Z,83.90
2023-03-25T08:28:13.403Z,83.90
2023-03-25T08:31:02.394Z,84.70
2023-03-25T08:33:48.366Z,84.50
2023-03-25T08:36:34.386Z,84.60
2023-03-25T08:39:22.029Z,82.70
2023-03-25T08:42:09.176Z,80.40
2023-03-25T08:44:55.600Z,80.00
2023-03-25T08:47:42.852Z,80.80
2023-03-25T08:50:29.005Z,81.20
2023-03-25T08:53:14.871Z,81.40
2023-03-25T08:56:01.330Z,81.90
2023-03-25T08:58:47.190Z,81.00
2023-03-25T09:01:33.232Z,80.10
2023-03-25T09:04:19.637Z,80.70
2023-03-25T09:07:12.660Z,82.20
2023-03-25T09:09:59.212Z,83.20
2023-03-25T09:12:45.927Z,82.10
2023-03-25T09:15:32.380Z,81.90
2023-03-25T09:18:18.222Z,81.50
2023-03-25T09:21:04.683Z,82.80
2023-03-25T09:23:50.745Z,80.70
2023-03-25T09:26:37.951Z,80.10
2023-03-25T09:29:23.871Z,80.10
2023-03-25T09:32:10.113Z,78.40
2023-03-25T09:34:56.051Z,76.00
2023-03-25T09:37:43.629Z,73.60
2023-03-25T09:40:30.250Z,73.80
2023-03-25T09:43:54.430Z,76.00
2023-03-25T09:46:40.931Z,75.20
2023-03-25T09:49:40.217Z,70.20
2023-03-25T09:52:32.645Z,70.90
2023-03-25T09:55:25.975Z,71.20
2023-03-25T09:58:36.483Z,69.70
2023-03-25T10:01:50.898Z,69.20
2023-03-25T10:05:02.957Z,70.70
2023-03-25T10:08:26.466Z,71.40
2023-03-25T10:11:25.843Z,73.20
2023-03-25T10:14:53.277Z,73.60
2023-03-25T10:18:23.558Z,73.50
2023-03-25T10:21:26.217Z,71.70
2023-03-25T10:24:12.343Z,70.80
2023-03-25T10:27:19.697Z,70.10
2023-03-25T10:30:31.065Z,70.30
2023-03-25T10:33:33.222Z,69.60
2023-03-25T10:36:22.810Z,70.60
2023-03-25T10:39:19.658Z,67.90
2023-03-25T10:42:23.395Z,70.40
2023-03-25T10:45:15.595Z,70.70
2023-03-25T10:48:25.669Z,70.90
2023-03-25T10:51:18.362Z,70.10
2023-03-25T10:54:04.683Z,71.30
2023-03-25T10:56:58.470Z,71.50
2023-03-25T10:59:47.294Z,70.60
2023-03-25T11:02:34.393Z,70.80
2023-03-25T11:05:24.717Z,71.20
2023-03-25T11:08:23.786Z,68.70
2023-03-25T11:11:10.982Z,68.40
2023-03-25T11:13:57.626Z,68.50
2023-03-25T11:16:52.518Z,69.30
2023-03-25T11:19:47.536Z,69.90
2023-03-25T11:22:38.828Z,70.60
2023-03-25T11:25:32.852Z,70.30
2023-03-25T11:28:27.542Z,70.80
2023-03-25T11:31:25.739Z,70.80
2023-03-25T11:34:22.589Z,71.30
2023-03-25T11:37:24.312Z,70.00
2023-03-25T11:40:16.706Z,69.60
2023-03-25T11:43:04.406Z,70.80
2023-03-25T11:45:51.606Z,69.10
2023-03-25T11:48:41.101Z,69.80
2023-03-25T11:51:32.274Z,69.30
2023-03-25T11:54:19.001Z,69.60
2023-03-25T11:57:11.863Z,71.00
2023-03-25T12:00:12.185Z,70.20
2023-03-25T12:03:03.517Z,70.80
2023-03-25T12:06:07.832Z,70.30
2023-03-25T12:08:56.945Z,69.90
2023-03-25T12:11:47.501Z,66.40
2023-03-25T12:14:39.599Z,63.20
2023-03-25T12:17:47.585Z,63.60
2023-03-25T12:20:45.967Z,63.40
2023-03-25T12:23:53.038Z,60.60
2023-03-25T12:26:51.251Z,62.80
2023-03-25T12:30:02.800Z,63.30
2023-03-25T12:33:07.945Z,64.60
2023-03-25T12:36:10.638Z,66.20
2023-03-25T12:39:15.184Z,67.80
2023-03-25T12:42:23.111Z,67.40
2023-03-25T12:45:47.375Z,69.10
2023-03-25T12:48:36.574Z,67.00
2023-03-25T12:51:42.528Z,66.80
2023-03-25T12:54:56.224Z,67.90
2023-03-25T12:57:58.211Z,64.60
2023-03-25T13:01:04.421Z,65.00
2023-03-25T13:04:09.751Z,64.40
2023-03-25T13:07:07.570Z,63.50
2023-03-25T13:10:21.198Z,64.70
2023-03-25T13:13:14.485Z,62.30
2023-03-25T13:16:16.362Z,61.50
2023-03-25T13:19:16.929Z,59.80
2023-03-25T13:22:18.474Z,58.80
2023-03-25T13:25:08.578Z,57.80
2023-03-25T13:27:59.343Z,56.00
2023-03-25T13:30:47.945Z,56.90
2023-03-25T13:33:38.197Z,57.00
2023-03-25T13:36:29.572Z,56.00
2023-03-25T13:39:32.000Z,57.50
2023-03-25T13:42:41.649Z,57.30
2023-03-25T13:45:32.082Z,58.10
2023-03-25T13:48:23.688Z,58.80
2023-03-25T13:51:10.672Z,60.00
2023-03-25T13:54:06.978Z,62.20
2023-03-25T13:57:08.435Z,62.90
2023-03-25T14:00:05.904Z,60.60
2023-03-25T14:03:00.891Z,58.20
2023-03-25T14:06:06.378Z,56.70
2023-03-25T14:09:14.442Z,58.30
2023-03-25T14:12:12.232Z,57.50
2023-03-25T14:15:15.189Z,58.90
2023-03-25T14:18:02.753Z,61.50
2023-03-25T14:20:51.366Z,63.30
2023-03-25T14:23:37.564Z,64.20
2023-03-25T14:26:23.675Z,61.90
2023-03-25T14:29:32.344Z,60.40
2023-03-25T14:32:18.735Z,61.70
2023-03-25T14:35:38.805Z,61.10
2023-03-25T14:38:51.809Z,61.30
2023-03-25T14:42:02.573Z,60.00
2023-03-25T14:44:54.519Z,60.20
2023-03-25T14:47:53.599Z,61.20
2023-03-25T14:50:40.896Z,61.90
2023-03-25T14:53:27.461Z,64.40
2023-03-25T14:56:19.484Z,64.70
2023-03-25T14:59:13.751Z,64.10
2023-03-25T15:02:25.968Z,64.00
2023-03-25T15:05:12.024Z,63.70
2023-03-25T15:08:25.808Z,64.30
2023-03-25T15:11:14.605Z,63.80
2023-03-25T15:14:07.740Z,63.30
2023-03-25T15:17:01.251Z,62.50
2023-03-25T15:20:19.104Z,63.50
2023-03-25T15:23:36.253Z,65.50
2023-03-25T15:26:33.124Z,67.30
2023-03-25T15:29:25.179Z,66.50
2023-03-25T15:32:47.104Z,67.50
2023-03-25T15:35:48.524Z,66.90
2023-03-25T15:38:51.580Z,66.80
2023-03-25T15:42:17.253Z,66.50
2023-03-25T15:45:26.170Z,65.70
2023-03-25T15:48:33.756Z,64.20
2023-03-25T15:51:48.749Z,66.00
2023-03-25T15:54:55.979Z,67.00
2023-03-25T15:57:54.145Z,67.80
2023-03-25T16:00:47.625Z,68.50
2023-03-25T16:03:34.973Z,69.30
2023-03-25T16:06:22.484Z,69.30
2023-03-25T16:09:19.246Z,69.70
2023-03-25T16:12:10.276Z,70.40
2023-03-25T16:14:56.182Z,70.10
2023-03-25T16:17:44.447Z,68.60
2023-03-25T16:20:31.977Z,67.80
2023-03-25T16:23:21.780Z,66.40
2023-03-25T16:26:07.888Z,66.30
2023-03-25T16:28:54.100Z,66.70
2023-03-25T16:31:42.916Z,68.30
2023-03-25T16:34:40.482Z,69.30
2023-03-25T16:37:28.107Z,69.60
2023-03-25T16:40:25.405Z,70.20
2023-03-25T16:43:26.100Z,70.70
2023-03-25T16:46:15.045Z,71.20
2023-03-25T16:49:02.133Z,71.70
2023-03-25T16:51:51.828Z,71.70
2023-03-25T16:54:47.004Z,71.90
2023-03-25T16:57:35.353Z,72.00
2023-03-25T17:00:24.417Z,71.90
2023-03-25T17:03:17.830Z,73.30
2023-03-25T17:06:15.986Z,75.20
2023-03-25T17:09:05.002Z,74.70
2023-03-25T17:11:56.956Z,75.00
2023-03-25T17:14:45.940Z,74.50
2023-03-25T17:17:47.483Z,74.50
2023-03-25T17:20:43.091Z,74.10
2023-03-25T17:23:41.486Z,74.10
2023-03-25T17:26:33.818Z,74.20
2023-03-25T17:29:22.082Z,74.80
2023-03-25T17:32:18.234Z,75.70
2023-03-25T17:35:06.818Z,75.00
2023-03-25T17:37:53.643Z,75.20
2023-03-25T17:40:40.116Z,74.80
2023-03-25T17:43:27.479Z,75.40
2023-03-25T17:46:22.144Z,75.40
2023-03-25T17:49:17.585Z,76.00
2023-03-25T17:52:03.651Z,76.10
2023-03-25T17:54:49.559Z,76.40
2023-03-25T17:57:37.406Z,76.90
2023-03-25T18:00:23.902Z,77.50
2023-03-25T18:03:16.709Z,77.80
2023-03-25T18:06:02.754Z,77.70
2023-03-25T18:08:49.570Z,78.00
2023-03-25T18:11:35.384Z,77.90
2023-03-25T18:14:23.667Z,77.90
2023-03-25T18:17:13.322Z,78.10
2023-03-25T18:19:59.547Z,77.90
2023-03-25T18:22:46.642Z,77.80
2023-03-25T18:25:34.291Z,77.50
2023-03-25T18:28:20.342Z,77.40
2023-03-25T18:31:06.214Z,77.30
2023-03-25T18:33:52.105Z,77.20
2023-03-25T18:36:37.966Z,77.20
2023-03-25T18:39:26.661Z,77.50
2023-03-25T18:42:12.616Z,77.70
2023-03-25T18:44:58.432Z,77.60
2023-03-25T18:47:44.738Z,78.00
2023-03-25T18:50:34.160Z,78.30
2023-03-25T18:53:21.869Z,78.70
2023-03-25T18:56:08.881Z,79.00
2023-03-25T18:58:54.853Z,79.30
2023-03-25T19:01:41.051Z,79.60
2023-03-25T19:04:27.212Z,80.20
2023-03-25T19:07:13.463Z,81.20
2023-03-25T19:09:59.627Z,81.20
2023-03-25T19:12:46.221Z,81.80
2023-03-25T19:15:32.564Z,82.00
2023-03-25T19:18:31.063Z,82.00
2023-03-25T19:21:19.566Z,82.20
2023-03-25T19:24:05.968Z,82.60
2023-03-25T19:26:51.755Z,82.20
2023-03-25T19:29:38.013Z,82.30
2023-03-25T19:32:24.290Z,82.40
2023-03-25T19:35:11.809Z,82.40
2023-03-25T19:37:58.358Z,82.60
2023-03-25T19:40:44.633Z,82.90
2023-03-25T19:43:31.071Z,83.10
2023-03-25T19:46:19.179Z,83.00
2023-03-25T19:49:05.802Z,83.10
2023-03-25T19:51:51.926Z,83.20
2023-03-25T19:54:37.883Z,83.60
2023-03-25T19:57:23.948Z,83.80
2023-03-25T20:00:13.277Z,83.60
2023-03-25T20:03:01.787Z,83.90
2023-03-25T20:05:48.226Z,83.90
2023-03-25T20:08:34.194Z,83.90
2023-03-25T20:11:20.642Z,83.90
2023-03-25T20:14:06.998Z,83.60
2023-03-25T20:16:52.880Z,83.50
2023-03-25T20:19:38.927Z,83.50
2023-03-25T20:22:26.204Z,83.60
2023-03-25T20:25:13.854Z,83.50
2023-03-25T20:28:00.739Z,83.60
2023-03-25T20:30:47.270Z,83.50
2023-03-25T20:33:33.398Z,83.50
2023-03-25T20:36:19.862Z,83.30
2023-03-25T20:39:06.510Z,83.40
2023-03-25T20:41:52.582Z,83.50
2023-03-25T20:44:39.014Z,83.40
2023-03-25T20:47:25.775Z,83.30
2023-03-25T20:50:14.571Z,83.40
2023-03-25T20:53:00.668Z,83.20
2023-03-25T20:55:47.539Z,83.50
2023-03-25T20:58:34.061Z,83.50
2023-03-25T21:01:21.220Z,83.60
2023-03-25T21:04:09.316Z,83.60
2023-03-25T21:06:55.312Z,83.50
2023-03-25T21:09:41.768Z,83.40
2023-03-25T21:12:40.671Z,83.30
2023-03-25T21:15:31.376Z,83.50
2023-03-25T21:18:17.563Z,83.50
2023-03-25T21:21:04.249Z,83.60
2023-03-25T21:23:50.632Z,83.90
2023-03-25T21:26:36.475Z,84.20
2023-03-25T21:29:22.856Z,84.30
2023-03-25T21:32:11.315Z,84.60
2023-03-25T21:34:59.640Z,84.70
2023-03-25T21:37:47.059Z,84.40
2023-03-25T21:40:39.302Z,84.10
2023-03-25T21:43:26.283Z,83.90
2023-03-25T21:46:13.153Z,84.10
2023-03-25T21:49:00.873Z,84.30
2023-03-25T21:51:50.294Z,84.70
2023-03-25T21:54:36.540Z,84.70
2023-03-25T21:57:22.795Z,84.70
2023-03-25T22:00:09.636Z,84.70
2023-03-25T22:02:58.809Z,84.80
2023-03-25T22:05:45.333Z,85.10
2023-03-25T22:08:31.845Z,85.00
2023-03-25T22:11:21.186Z,85.00
2023-03-25T22:14:09.423Z,85.00
2023-03-25T22:16:55.562Z,84.80
2023-03-25T22:19:42.438Z,84.60
2023-03-25T22:22:29.947Z,84.80
2023-03-25T22:25:16.280Z,84.60
2023-03-25T22:28:02.222Z,84.60
2023-03-25T22:30:49.010Z,84.80
2023-03-25T22:33:36.417Z,84.70
2023-03-25T22:36:22.820Z,84.70
2023-03-25T22:39:09.835Z,84.90
2023-03-25T22:41:57.886Z,84.60
2023-03-25T22:44:44.755Z,84.90
2023-03-25T22:47:31.074Z,84.90
2023-03-25T22:50:17.327Z,84.90
2023-03-25T22:53:03.292Z,84.90
2023-03-25T22:55:55.332Z,84.80
2023-03-25T22:58:41.739Z,84.90
2023-03-25T23:01:28.693Z,84.90
2023-03-25T23:04:15.523Z,84.40
2023-03-25T23:07:08.010Z,84.20
2023-03-25T23:09:54.904Z,84.10
2023-03-25T23:12:40.807Z,84.20
2023-03-25T23:15:30.296Z,84.50
2023-03-25T23:18:16.629Z,84.70
2023-03-25T23:21:03.268Z,84.80
2023-03-25T23:23:53.450Z,84.80
2023-03-25T23:26:41.102Z,85.10
2023-03-25T23:29:27.258Z,84.90
2023-03-25T23:32:14.583Z,84.70
2023-03-25T23:35:05.909Z,84.80
2023-03-25T23:37:53.394Z,85.20
2023-03-25T23:40:41.118Z,84.30
2023-03-25T23:43:27.391Z,84.50
2023-03-25T23:46:13.673Z,84.10
2023-03-25T23:49:02.431Z,84.10
2023-03-25T23:51:48.935Z,84.20
2023-03-25T23:54:35.152Z,83.90
2023-03-25T23:57:21.261Z,84.20
